Pagrindinis puslapis
METAR-TAF:

METAR-TAF

Oro uostai :

Krajova, Rumunija

platuma: 44-14N, ilguma: 023-52E, Aukštis: 192 m

Dabartinis oras

Ataskaita buvo paskelbta 13 minutes, ne 07:30 UTC
Vėjas 7 kt iš Vakarų/Pietvakarių, svyruoja nuo Pietų/Pietvakarių ir Vakarų
Temperatūra 23°C
Drėgmė 38%
Slėgis 1005 hPa
Matomumas 10 km arba daugiau
nėra debesų žemiau 1500 m ir nėra kamuolinių lietaus debesų

METAR: LRCV 160730Z 24007KT 210V270 CAVOK 23/08 Q1005

Laikas: 10:43 (07:43 UTC)

Prognozė

Ataskaita buvo paskelbta 2 valandos ir 43 minutes, ne 05:00 UTC
Prognozė galioja nuo 16 metu 06 UTC su 16 metu 15 UTC
Vėjas 6 kt iš Vakarų/Pietvakarių
Matomumas 10 km arba daugiau
nėra debesų žemiau 1500 m ir nėra kamuolinių lietaus debesų
Tapsmas
nuo 16 metu 09 UTC su 16 metu 11 UTC
Vėjas 12 kt iš Pietų/Pietvakarių
Laikinai
nuo 16 metu 11 UTC su 16 metu 15 UTC
Vėjas 16 kt iš Vakarų/Pietvakarių su gūsio iki 26 kt

TAF: LRCV 160500Z 1606/1615 25006KT CAVOK BECMG 1609/1611 21012KT TEMPO 1611/1615 25016G26KT

Orai ataskaitas ir orų prognozės (METAR, TAF).

turimą stotys yra geltonos ir raudonos taškus žemėlapyje.

Perkelti pele per norėdami pamatyti stoties vardą.

Tada spustelėkite, norėdami matyti oro stebėjimo ir prognozės.

Norėdami pakeisti žemėlapį: spustelėkite ant žalios mygtukų su juodo kryžiaus žemyn,; žalią mygtuką su brūkšneliu, jei norite nutolinti; arba žalių rodyklių gretimoms žemėlapius.


METAR-TAF: